createdAt,value
2022-11-09T00:01:30.725Z,7.14
2022-11-09T00:06:33.559Z,7.17
2022-11-09T00:11:37.378Z,7.20
2022-11-09T00:16:39.162Z,7.21
2022-11-09T00:21:40.914Z,7.30
2022-11-09T00:26:42.757Z,7.31
2022-11-09T00:31:44.539Z,7.26
2022-11-09T00:36:46.351Z,7.20
2022-11-09T00:41:48.127Z,7.17
2022-11-09T00:46:49.898Z,7.15
2022-11-09T00:51:52.853Z,7.02
2022-11-09T00:56:54.634Z,6.98
2022-11-09T01:01:56.561Z,7.03
2022-11-09T01:06:58.406Z,7.10
2022-11-09T01:12:00.276Z,7.20
2022-11-09T01:17:02.107Z,7.18
2022-11-09T01:22:03.943Z,7.19
2022-11-09T01:27:05.743Z,7.11
2022-11-09T01:32:07.541Z,7.09
2022-11-09T01:37:09.333Z,7.03
2022-11-09T01:42:11.168Z,7.09
2022-11-09T01:47:25.123Z,7.09
2022-11-09T01:52:38.763Z,7.09
2022-11-09T01:57:53.942Z,7.07
2022-11-09T02:03:05.205Z,7.07
2022-11-09T02:08:10.565Z,7.15
2022-11-09T02:13:16.426Z,7.18
2022-11-09T02:18:19.808Z,7.19
2022-11-09T02:23:22.507Z,7.26
2022-11-09T02:28:26.436Z,7.21
2022-11-09T02:33:28.507Z,7.22
2022-11-09T02:38:30.421Z,7.21
2022-11-09T02:43:32.405Z,7.19
2022-11-09T02:48:35.169Z,7.25
2022-11-09T02:53:37.029Z,7.21
2022-11-09T02:58:38.956Z,7.21
2022-11-09T03:03:41.149Z,7.15
2022-11-09T03:08:42.974Z,7.14
2022-11-09T03:13:45.400Z,7.18
2022-11-09T03:18:49.131Z,7.12
2022-11-09T03:23:51.485Z,7.16
2022-11-09T03:28:53.497Z,7.20
2022-11-09T03:33:55.306Z,7.14
2022-11-09T03:38:57.191Z,7.07
2022-11-09T03:43:59.267Z,7.07
2022-11-09T03:49:01.074Z,7.14
2022-11-09T03:54:02.931Z,7.21
2022-11-09T03:59:04.859Z,7.30
2022-11-09T04:04:06.992Z,7.31
2022-11-09T04:09:10.164Z,7.30
2022-11-09T04:14:12.129Z,7.43
2022-11-09T04:19:14.055Z,7.51
2022-11-09T04:24:16.123Z,7.53
2022-11-09T04:29:17.884Z,7.54
2022-11-09T04:34:19.631Z,7.48
2022-11-09T04:39:21.419Z,7.43
2022-11-09T04:44:23.214Z,7.42
2022-11-09T04:49:25.115Z,7.34
2022-11-09T04:54:26.971Z,7.32
2022-11-09T04:59:28.804Z,7.24
2022-11-09T05:04:30.654Z,7.25
2022-11-09T05:09:32.440Z,7.27
2022-11-09T05:14:34.191Z,7.32
2022-11-09T05:19:36.058Z,7.29
2022-11-09T05:24:37.839Z,7.30
2022-11-09T05:29:39.661Z,7.21
2022-11-09T05:34:41.271Z,7.26
2022-11-09T05:39:42.924Z,7.30
2022-11-09T05:44:44.519Z,7.36
2022-11-09T05:49:46.132Z,7.38
2022-11-09T05:54:47.792Z,7.34
2022-11-09T05:59:49.371Z,7.35
2022-11-09T06:04:50.975Z,7.36
2022-11-09T06:09:52.630Z,7.34
2022-11-09T06:14:54.341Z,7.33
2022-11-09T06:19:55.977Z,7.41
2022-11-09T06:24:57.601Z,7.55
2022-11-09T06:29:59.166Z,7.78
2022-11-09T06:35:00.758Z,8.01
2022-11-09T06:40:02.349Z,8.10
2022-11-09T06:45:04.325Z,8.19
2022-11-09T06:50:06.402Z,8.81
2022-11-09T06:55:08.883Z,9.46
2022-11-09T07:00:11.203Z,10.42
2022-11-09T07:05:13.182Z,10.96
2022-11-09T07:10:14.980Z,11.40
2022-11-09T07:15:17.568Z,11.67
2022-11-09T07:20:19.306Z,11.84
2022-11-09T07:25:21.128Z,12.00
2022-11-09T07:30:22.715Z,12.12
2022-11-09T07:35:24.288Z,12.19
2022-11-09T07:40:25.864Z,12.26
2022-11-09T07:45:31.294Z,12.22
2022-11-09T07:50:34.729Z,12.24
2022-11-09T07:55:36.682Z,12.18
2022-11-09T08:00:39.974Z,12.15
2022-11-09T08:05:41.585Z,12.11
2022-11-09T08:10:44.373Z,11.88
2022-11-09T08:15:46.861Z,11.54
2022-11-09T08:20:49.474Z,11.22
2022-11-09T08:25:51.245Z,10.99
2022-11-09T08:30:59.883Z,10.77
2022-11-09T08:36:01.769Z,10.49
2022-11-09T08:41:03.484Z,10.39
2022-11-09T08:46:05.262Z,10.34
2022-11-09T08:51:06.922Z,10.32
2022-11-09T08:56:09.604Z,10.41
2022-11-09T09:01:16.695Z,10.49
2022-11-09T09:06:18.913Z,10.69
2022-11-09T09:11:20.529Z,10.94
2022-11-09T09:16:22.157Z,11.22
2022-11-09T09:21:23.756Z,11.25
2022-11-09T09:26:25.304Z,11.30
2022-11-09T09:31:27.529Z,11.62
2022-11-09T09:36:30.325Z,11.91
2022-11-09T09:41:37.189Z,12.18
2022-11-09T09:46:47.623Z,12.54
2022-11-09T09:51:58.184Z,12.80
2022-11-09T09:57:01.974Z,13.01
2022-11-09T10:02:03.633Z,13.07
2022-11-09T10:07:20.467Z,12.88
2022-11-09T10:12:32.628Z,12.86
2022-11-09T10:17:52.481Z,12.76
2022-11-09T10:23:04.020Z,12.94
2022-11-09T10:28:13.266Z,13.50
2022-11-09T10:33:21.457Z,13.54
2022-11-09T10:38:36.250Z,13.69
2022-11-09T10:43:56.553Z,13.58
2022-11-09T10:49:20.899Z,13.48
2022-11-09T10:54:41.236Z,14.34
2022-11-09T11:00:02.450Z,15.06
2022-11-09T11:05:28.552Z,15.19
2022-11-09T11:10:55.178Z,14.68
2022-11-09T11:16:32.879Z,14.38
2022-11-09T11:22:11.528Z,14.94
2022-11-09T11:27:43.991Z,14.80
2022-11-09T11:33:22.350Z,14.50
2022-11-09T11:39:01.560Z,14.43
2022-11-09T11:44:50.633Z,14.55
2022-11-09T11:50:27.240Z,14.47
2022-11-09T11:56:09.270Z,14.47
2022-11-09T12:01:29.433Z,14.32
2022-11-09T12:06:58.400Z,14.11
2022-11-09T12:12:40.327Z,14.18
2022-11-09T12:18:22.037Z,14.30
2022-11-09T12:23:45.036Z,14.21
2022-11-09T12:29:11.326Z,14.34
2022-11-09T12:35:13.881Z,14.33
2022-11-09T12:40:39.629Z,14.46
2022-11-09T12:46:01.939Z,14.43
2022-11-09T12:51:22.713Z,14.45
2022-11-09T12:56:54.297Z,14.35
2022-11-09T13:02:42.689Z,14.30
2022-11-09T13:08:05.999Z,14.25
2022-11-09T13:13:26.148Z,14.32
2022-11-09T13:18:51.965Z,14.38
2022-11-09T13:24:30.324Z,14.31
2022-11-09T13:29:56.354Z,14.35
2022-11-09T13:35:42.327Z,14.47
2022-11-09T13:41:32.017Z,14.58
2022-11-09T13:46:53.829Z,14.70
2022-11-09T13:53:08.297Z,14.72
2022-11-09T13:58:38.527Z,14.56
2022-11-09T14:03:58.754Z,14.53
2022-11-09T14:09:20.555Z,14.50
2022-11-09T14:15:02.142Z,14.49
2022-11-09T14:20:33.082Z,14.53
2022-11-09T14:25:53.556Z,14.43
2022-11-09T14:31:28.278Z,14.27
2022-11-09T14:36:48.276Z,14.06
2022-11-09T14:42:17.255Z,13.81
2022-11-09T14:47:38.185Z,13.60
2022-11-09T14:52:59.171Z,13.47
2022-11-09T14:58:21.454Z,13.32
2022-11-09T15:03:42.148Z,13.15
2022-11-09T15:09:07.774Z,12.92
2022-11-09T15:14:34.889Z,12.69
2022-11-09T15:20:22.575Z,12.34
2022-11-09T15:25:43.523Z,12.04
2022-11-09T15:31:04.049Z,12.05
2022-11-09T15:36:33.700Z,12.30
2022-11-09T15:41:53.848Z,12.31
2022-11-09T15:47:31.589Z,12.31
2022-11-09T15:52:52.608Z,12.11
2022-11-09T15:58:15.263Z,11.91
2022-11-09T16:03:35.441Z,12.06
2022-11-09T16:08:55.935Z,12.27
2022-11-09T16:14:17.898Z,12.39
2022-11-09T16:19:39.681Z,12.38
2022-11-09T16:24:59.961Z,12.31
2022-11-09T16:30:21.639Z,12.19
2022-11-09T16:35:42.019Z,12.08
2022-11-09T16:41:03.723Z,12.15
2022-11-09T16:46:29.410Z,12.03
2022-11-09T16:51:49.587Z,11.93
2022-11-09T16:57:09.825Z,12.07
2022-11-09T17:02:30.200Z,12.00
2022-11-09T17:07:50.452Z,11.77
2022-11-09T17:13:12.040Z,11.69
2022-11-09T17:18:32.286Z,11.62
2022-11-09T17:23:54.396Z,11.45
2022-11-09T17:29:15.184Z,11.23
2022-11-09T17:34:35.558Z,11.23
2022-11-09T17:39:55.652Z,11.44
2022-11-09T17:45:16.092Z,11.80
2022-11-09T17:50:36.212Z,11.64
2022-11-09T17:55:56.750Z,11.82
2022-11-09T18:01:20.864Z,11.83
2022-11-09T18:06:41.241Z,11.98
2022-11-09T18:12:01.685Z,12.08
2022-11-09T18:17:21.920Z,12.15
2022-11-09T18:22:42.278Z,12.12
2022-11-09T18:28:02.730Z,12.13
2022-11-09T18:33:22.993Z,12.20
2022-11-09T18:38:45.083Z,12.15
2022-11-09T18:44:05.963Z,12.14
2022-11-09T18:49:25.912Z,12.16
2022-11-09T18:54:46.516Z,11.92
2022-11-09T19:00:07.380Z,11.68
2022-11-09T19:05:27.619Z,11.57
2022-11-09T19:10:47.672Z,11.61
2022-11-09T19:16:11.750Z,11.54
2022-11-09T19:21:48.277Z,11.63
2022-11-09T19:27:09.303Z,11.78
2022-11-09T19:32:29.857Z,11.57
2022-11-09T19:37:50.157Z,11.46
2022-11-09T19:43:10.399Z,11.44
2022-11-09T19:48:32.189Z,11.40
2022-11-09T19:53:56.473Z,11.10
2022-11-09T19:59:17.788Z,10.80
2022-11-09T20:04:38.106Z,10.65
2022-11-09T20:09:58.676Z,10.56
2022-11-09T20:15:19.444Z,10.49
2022-11-09T20:20:39.661Z,10.57
2022-11-09T20:26:07.913Z,10.53
2022-11-09T20:31:28.167Z,10.51
2022-11-09T20:36:48.359Z,10.57
2022-11-09T20:42:10.165Z,10.64
2022-11-09T20:47:57.625Z,10.87
2022-11-09T20:53:11.547Z,11.01
2022-11-09T20:58:31.833Z,10.94
2022-11-09T21:03:53.206Z,10.82
2022-11-09T21:09:13.539Z,10.70
2022-11-09T21:14:33.735Z,10.51
2022-11-09T21:19:53.998Z,10.43
2022-11-09T21:25:32.833Z,10.33
2022-11-09T21:30:53.026Z,10.11
2022-11-09T21:36:14.874Z,9.94
2022-11-09T21:41:38.024Z,10.17
2022-11-09T21:46:58.973Z,9.98
2022-11-09T21:52:19.404Z,10.01
2022-11-09T21:57:39.724Z,10.03
2022-11-09T22:03:02.087Z,10.15
2022-11-09T22:08:22.423Z,10.07
2022-11-09T22:14:01.638Z,10.11
2022-11-09T22:19:40.132Z,10.07
2022-11-09T22:25:00.290Z,10.05
2022-11-09T22:30:20.913Z,9.96
2022-11-09T22:35:41.234Z,9.91
2022-11-09T22:41:07.680Z,9.82
2022-11-09T22:46:28.472Z,9.89
2022-11-09T22:51:48.646Z,9.88
2022-11-09T22:57:09.140Z,9.88
2022-11-09T23:02:29.557Z,9.79
2022-11-09T23:07:49.890Z,9.61
2022-11-09T23:13:10.192Z,9.67
2022-11-09T23:18:48.916Z,9.58
2022-11-09T23:24:29.137Z,9.41
2022-11-09T23:29:49.359Z,9.13
2022-11-09T23:35:10.485Z,8.93
2022-11-09T23:40:33.575Z,8.81
2022-11-09T23:45:54.153Z,8.64
2022-11-09T23:51:14.238Z,8.44
2022-11-09T23:56:34.723Z,8.33
